createdAt,value
2018-07-12T00:00:39.502Z,0.00
2018-07-12T00:01:36.669Z,0.00
2018-07-12T00:02:36.617Z,0.00
2018-07-12T00:03:36.582Z,0.00
2018-07-12T00:04:36.572Z,0.00
2018-07-12T00:05:36.553Z,0.00
2018-07-12T00:06:36.543Z,0.00
2018-07-12T00:07:38.983Z,0.00
2018-07-12T00:08:36.462Z,0.00
2018-07-12T00:09:36.442Z,0.00
2018-07-12T00:10:36.408Z,0.00
2018-07-12T00:11:36.415Z,0.00
2018-07-12T00:12:36.377Z,0.00
2018-07-12T00:13:36.346Z,0.00
2018-07-12T00:14:36.319Z,0.00
2018-07-12T00:15:36.305Z,0.00
2018-07-12T00:16:36.269Z,0.00
2018-07-12T00:17:36.239Z,0.00
2018-07-12T00:18:36.225Z,0.00
2018-07-12T00:19:36.203Z,0.00
2018-07-12T00:20:36.164Z,0.00
2018-07-12T00:21:36.139Z,0.00
2018-07-12T00:22:36.111Z,0.00
2018-07-12T00:23:36.104Z,0.00
2018-07-12T00:24:36.061Z,0.00
2018-07-12T00:25:36.048Z,0.00
2018-07-12T00:26:36.015Z,0.00
2018-07-12T00:27:36.012Z,0.00
2018-07-12T00:28:35.973Z,0.00
2018-07-12T00:29:35.948Z,0.00
2018-07-12T00:30:43.353Z,0.00
2018-07-12T00:32:29.225Z,0.00
2018-07-12T00:33:29.201Z,0.00
2018-07-12T00:34:29.162Z,0.00
2018-07-12T00:35:29.157Z,0.00
2018-07-12T00:36:29.122Z,0.00
2018-07-12T00:37:29.108Z,0.00
2018-07-12T00:38:29.073Z,0.00
2018-07-12T00:39:29.053Z,0.00
2018-07-12T00:40:29.019Z,0.00
2018-07-12T00:41:29.006Z,0.00
2018-07-12T00:42:30.831Z,0.00
2018-07-12T00:43:28.940Z,0.00
2018-07-12T00:44:28.922Z,0.00
2018-07-12T00:45:28.898Z,0.00
2018-07-12T00:46:28.874Z,0.00
2018-07-12T00:47:28.875Z,0.00
2018-07-12T00:48:28.828Z,0.00
2018-07-12T00:49:28.792Z,0.00
2018-07-12T00:50:28.771Z,0.00
2018-07-12T00:51:28.761Z,0.00
2018-07-12T00:52:28.727Z,0.00
2018-07-12T00:53:30.330Z,0.00
2018-07-12T00:54:28.671Z,0.00
2018-07-12T00:55:28.658Z,0.00
2018-07-12T00:56:28.628Z,0.00
2018-07-12T00:57:28.621Z,0.00
2018-07-12T00:58:28.588Z,0.00
2018-07-12T00:59:28.544Z,0.00
2018-07-12T01:00:30.329Z,0.00
2018-07-12T01:01:30.327Z,0.00
2018-07-12T01:02:30.328Z,0.00
2018-07-12T01:03:28.446Z,0.00
2018-07-12T01:04:28.422Z,0.00
2018-07-12T01:05:28.409Z,0.00
2018-07-12T01:06:28.382Z,0.00
2018-07-12T01:07:28.377Z,0.00
2018-07-12T01:08:28.330Z,0.00
2018-07-12T01:09:28.307Z,0.00
2018-07-12T01:10:28.276Z,0.00
2018-07-12T01:11:28.246Z,0.00
2018-07-12T01:12:28.228Z,0.00
2018-07-12T01:13:28.216Z,0.00
2018-07-12T01:14:28.174Z,0.00
2018-07-12T01:15:28.142Z,0.00
2018-07-12T01:16:28.130Z,0.00
2018-07-12T01:17:28.126Z,0.00
2018-07-12T01:18:28.091Z,0.00
2018-07-12T01:19:28.049Z,0.00
2018-07-12T01:20:28.026Z,0.00
2018-07-12T01:21:27.984Z,0.00
2018-07-12T01:22:27.971Z,0.00
2018-07-12T01:23:27.956Z,0.00
2018-07-12T01:24:27.930Z,0.00
2018-07-12T01:25:27.912Z,0.00
2018-07-12T01:26:27.886Z,0.00
2018-07-12T01:27:27.853Z,0.00
2018-07-12T01:28:27.823Z,0.00
2018-07-12T01:29:27.810Z,0.00
2018-07-12T01:30:27.777Z,0.00
2018-07-12T01:31:27.746Z,0.00
2018-07-12T01:32:27.730Z,0.00
2018-07-12T01:33:27.704Z,0.00
2018-07-12T01:34:27.686Z,0.00
2018-07-12T01:35:27.649Z,0.00
2018-07-12T01:36:27.628Z,0.00
2018-07-12T01:37:27.604Z,0.00
2018-07-12T01:38:27.573Z,0.00
2018-07-12T01:39:27.550Z,0.00
2018-07-12T01:40:27.520Z,0.00
2018-07-12T01:41:27.498Z,0.00
2018-07-12T01:42:29.334Z,0.00
2018-07-12T01:43:27.450Z,0.00
2018-07-12T01:44:27.423Z,0.00
2018-07-12T01:45:27.423Z,0.00
2018-07-12T01:46:27.378Z,0.00
2018-07-12T01:47:27.351Z,0.00
2018-07-12T01:48:28.839Z,0.00
2018-07-12T01:49:27.314Z,0.00
2018-07-12T01:50:27.284Z,0.00
2018-07-12T01:51:27.273Z,0.00
2018-07-12T01:52:27.220Z,0.00
2018-07-12T01:53:27.198Z,0.00
2018-07-12T01:54:27.165Z,0.00
2018-07-12T01:55:27.145Z,0.00
2018-07-12T01:56:27.128Z,0.00
2018-07-12T01:57:27.108Z,0.00
2018-07-12T01:58:27.083Z,0.00
2018-07-12T01:59:28.839Z,0.00
2018-07-12T02:00:27.058Z,0.00
2018-07-12T02:01:27.007Z,0.00
2018-07-12T02:02:26.994Z,0.00
2018-07-12T02:03:26.963Z,0.00
2018-07-12T02:04:26.920Z,0.00
2018-07-12T02:05:26.901Z,0.00
2018-07-12T02:06:28.853Z,0.00
2018-07-12T02:07:27.846Z,0.00
2018-07-12T02:08:26.825Z,0.00
2018-07-12T02:09:26.799Z,0.00
2018-07-12T02:10:26.775Z,0.00
2018-07-12T02:11:26.761Z,0.00
2018-07-12T02:12:26.725Z,0.00
2018-07-12T02:13:26.718Z,0.00
2018-07-12T02:14:26.686Z,0.00
2018-07-12T02:15:28.343Z,0.00
2018-07-12T02:16:26.626Z,0.00
2018-07-12T02:17:26.611Z,0.00
2018-07-12T02:18:26.587Z,0.00
2018-07-12T02:19:26.564Z,0.00
2018-07-12T02:20:26.531Z,0.00
2018-07-12T02:21:26.506Z,0.00
2018-07-12T02:22:26.480Z,4.00
2018-07-12T02:23:26.449Z,4.00
2018-07-12T02:24:26.417Z,4.00
2018-07-12T02:25:26.409Z,4.00
2018-07-12T02:26:26.375Z,0.00
2018-07-12T02:27:26.343Z,0.00
2018-07-12T02:28:26.346Z,0.00
2018-07-12T02:29:26.297Z,0.00
2018-07-12T02:30:26.280Z,4.00
2018-07-12T02:31:26.246Z,4.00
2018-07-12T02:32:26.228Z,4.00
2018-07-12T02:33:26.189Z,4.00
2018-07-12T02:34:26.175Z,4.00
2018-07-12T02:35:26.147Z,4.00
2018-07-12T02:36:26.128Z,4.00
2018-07-12T02:37:26.110Z,4.00
2018-07-12T02:38:26.086Z,4.00
2018-07-12T02:39:26.050Z,8.00
2018-07-12T02:40:26.024Z,12.00
2018-07-12T02:41:25.993Z,8.00
2018-07-12T02:42:25.972Z,12.00
2018-07-12T02:43:25.951Z,12.00
2018-07-12T02:44:27.861Z,12.00
2018-07-12T02:45:25.896Z,16.00
2018-07-12T02:46:25.884Z,16.00
2018-07-12T02:47:27.350Z,16.00
2018-07-12T02:48:27.371Z,20.00
2018-07-12T02:49:25.802Z,20.00
2018-07-12T02:50:25.783Z,20.00
2018-07-12T02:51:25.741Z,24.00
2018-07-12T02:52:25.734Z,28.00
2018-07-12T02:53:25.717Z,28.00
2018-07-12T02:54:25.670Z,24.00
2018-07-12T02:55:25.687Z,20.00
2018-07-12T02:56:25.624Z,20.00
2018-07-12T02:57:25.597Z,20.00
2018-07-12T02:58:25.577Z,24.00
2018-07-12T02:59:25.546Z,24.00
2018-07-12T03:00:25.527Z,24.00
2018-07-12T03:01:25.502Z,32.00
2018-07-12T03:02:25.473Z,36.00
2018-07-12T03:03:27.354Z,36.00
2018-07-12T03:04:25.463Z,40.00
2018-07-12T03:05:25.414Z,52.00
2018-07-12T03:06:25.380Z,60.00
2018-07-12T03:07:25.376Z,72.00
2018-07-12T03:08:25.345Z,72.00
2018-07-12T03:09:25.307Z,76.00
2018-07-12T03:10:25.284Z,72.00
2018-07-12T03:11:25.245Z,60.00
2018-07-12T03:12:25.228Z,56.00
2018-07-12T03:13:25.226Z,64.00
2018-07-12T03:14:25.179Z,68.00
2018-07-12T03:15:25.157Z,72.00
2018-07-12T03:16:25.161Z,76.00
2018-07-12T03:17:25.110Z,84.00
2018-07-12T03:18:25.079Z,92.00
2018-07-12T03:19:25.062Z,96.00
2018-07-12T03:20:25.037Z,100.00
2018-07-12T03:21:25.008Z,108.00
2018-07-12T03:22:24.982Z,120.00
2018-07-12T03:23:24.979Z,128.00
2018-07-12T03:24:24.933Z,132.00
2018-07-12T03:25:24.918Z,140.00
2018-07-12T03:26:24.874Z,156.00
2018-07-12T03:27:24.857Z,164.00
2018-07-12T03:28:24.838Z,168.00
2018-07-12T03:29:24.813Z,196.00
2018-07-12T03:30:24.797Z,216.00
2018-07-12T03:31:26.370Z,240.00
2018-07-12T03:32:24.749Z,232.00
2018-07-12T03:33:24.714Z,236.00
2018-07-12T03:34:24.702Z,240.00
2018-07-12T03:35:24.666Z,232.00
2018-07-12T03:36:24.645Z,228.00
2018-07-12T03:37:24.613Z,236.00
2018-07-12T03:38:24.600Z,228.00
2018-07-12T03:39:24.563Z,232.00
2018-07-12T03:40:24.550Z,224.00
2018-07-12T03:41:24.514Z,232.00
2018-07-12T03:42:24.500Z,236.00
2018-07-12T03:43:24.464Z,236.00
2018-07-12T03:44:26.371Z,256.00
2018-07-12T03:45:24.428Z,252.00
2018-07-12T03:46:24.391Z,244.00
2018-07-12T03:47:24.377Z,236.00
2018-07-12T03:48:25.900Z,256.00
2018-07-12T03:49:25.869Z,248.00
2018-07-12T03:50:24.292Z,244.00
2018-07-12T03:51:24.286Z,276.00
2018-07-12T03:52:24.250Z,312.00
2018-07-12T03:53:24.216Z,320.00
2018-07-12T03:54:25.869Z,332.00
2018-07-12T03:55:24.179Z,340.00
2018-07-12T03:56:24.147Z,364.00
2018-07-12T03:57:24.116Z,444.00
2018-07-12T03:58:24.112Z,444.00
2018-07-12T03:59:25.879Z,448.00
2018-07-12T04:00:24.050Z,440.00
2018-07-12T04:01:24.021Z,456.00
2018-07-12T04:02:24.004Z,452.00
2018-07-12T04:03:23.985Z,408.00
2018-07-12T04:04:23.958Z,432.00
2018-07-12T04:05:23.942Z,476.00
2018-07-12T04:06:23.909Z,496.00
2018-07-12T04:07:23.893Z,496.00
2018-07-12T04:08:23.870Z,460.00
2018-07-12T04:09:23.831Z,456.00
2018-07-12T04:10:23.810Z,408.00
2018-07-12T04:11:23.772Z,400.00
2018-07-12T04:12:23.752Z,380.00
2018-07-12T04:13:23.729Z,388.00
2018-07-12T04:14:23.707Z,412.00
2018-07-12T04:15:23.687Z,420.00
2018-07-12T04:16:23.649Z,496.00
2018-07-12T04:17:23.653Z,540.00
2018-07-12T04:18:23.609Z,564.00
2018-07-12T04:19:23.582Z,536.00
2018-07-12T04:20:25.391Z,508.00
2018-07-12T04:21:23.555Z,516.00
2018-07-12T04:22:23.504Z,544.00
2018-07-12T04:23:23.493Z,576.00
2018-07-12T04:24:23.455Z,636.00
2018-07-12T04:25:23.460Z,672.00
2018-07-12T04:26:23.414Z,760.00
2018-07-12T04:27:23.400Z,736.00
2018-07-12T04:28:23.366Z,780.00
2018-07-12T04:29:23.336Z,864.00
2018-07-12T04:30:23.331Z,872.00
2018-07-12T04:31:23.292Z,816.00
2018-07-12T04:32:23.271Z,788.00
2018-07-12T04:33:23.259Z,888.00
2018-07-12T04:34:23.264Z,832.00
2018-07-12T04:35:23.191Z,844.00
2018-07-12T04:36:23.174Z,912.00
2018-07-12T04:37:23.144Z,808.00
2018-07-12T04:38:23.118Z,736.00
2018-07-12T04:39:23.100Z,752.00
2018-07-12T04:40:23.085Z,740.00
2018-07-12T04:41:23.048Z,836.00
2018-07-12T04:42:23.026Z,940.00
2018-07-12T04:43:24.877Z,972.00
2018-07-12T04:44:24.877Z,1088.00
2018-07-12T04:45:22.953Z,1160.00
2018-07-12T04:46:22.944Z,1144.00
2018-07-12T04:47:22.921Z,1260.00
2018-07-12T04:48:24.375Z,1368.00
2018-07-12T04:49:22.877Z,1440.00
2018-07-12T04:50:22.846Z,1528.00
2018-07-12T04:51:22.834Z,1608.00
2018-07-12T04:52:24.380Z,1780.00
2018-07-12T04:53:22.771Z,2032.00
2018-07-12T04:54:22.732Z,2148.00
2018-07-12T04:55:22.718Z,2088.00
2018-07-12T04:56:22.687Z,2012.00
2018-07-12T04:57:22.670Z,1976.00
2018-07-12T04:58:22.721Z,2076.00
2018-07-12T04:59:22.608Z,2116.00
2018-07-12T05:00:22.606Z,2084.00
2018-07-12T05:01:30.028Z,1964.00
2018-07-12T05:03:15.686Z,2056.00
2018-07-12T05:04:15.673Z,2004.00
2018-07-12T05:06:09.276Z,1816.00
2018-07-12T05:07:09.232Z,1812.00
2018-07-12T05:09:02.405Z,1652.00
2018-07-12T05:10:02.338Z,1576.00
2018-07-12T05:11:03.198Z,1376.00
2018-07-12T05:12:02.311Z,1272.00
2018-07-12T05:13:02.269Z,1340.00
2018-07-12T05:14:02.252Z,1384.00
2018-07-12T05:15:03.166Z,1400.00
2018-07-12T05:16:02.203Z,1400.00
2018-07-12T05:17:02.230Z,1348.00
2018-07-12T05:18:02.160Z,1368.00
2018-07-12T05:19:02.163Z,1324.00
2018-07-12T05:21:02.100Z,1152.00
2018-07-12T05:22:02.150Z,1196.00
2018-07-12T05:23:02.059Z,1240.00
2018-07-12T05:24:02.019Z,1168.00
2018-07-12T05:27:01.925Z,1144.00
2018-07-12T05:28:01.955Z,1176.00
2018-07-12T05:29:01.956Z,1252.00
2018-07-12T05:30:01.881Z,1264.00
2018-07-12T05:31:01.961Z,1292.00
2018-07-12T05:32:01.852Z,1288.00
2018-07-12T05:33:01.820Z,1184.00
2018-07-12T05:34:01.833Z,1272.00
2018-07-12T05:35:01.812Z,1300.00
2018-07-12T05:36:02.722Z,1180.00
2018-07-12T05:37:01.749Z,1156.00
2018-07-12T05:38:02.686Z,1308.00
2018-07-12T05:39:01.685Z,1420.00
2018-07-12T05:40:01.685Z,1632.00
2018-07-12T05:41:01.610Z,1504.00
2018-07-12T05:42:01.641Z,1540.00
2018-07-12T05:43:01.599Z,1604.00
2018-07-12T05:44:01.534Z,1856.00
2018-07-12T05:45:01.510Z,2304.00
2018-07-12T05:46:05.198Z,2340.00
2018-07-12T05:47:01.468Z,2464.00
2018-07-12T05:48:01.488Z,2380.00
2018-07-12T05:49:01.423Z,2520.00
2018-07-12T05:50:01.461Z,2700.00
2018-07-12T05:51:01.406Z,2652.00
2018-07-12T05:52:01.324Z,2712.00
2018-07-12T05:53:01.320Z,3052.00
2018-07-12T05:54:01.308Z,3032.00
2018-07-12T05:55:01.291Z,3148.00
2018-07-12T05:56:01.284Z,3220.00
2018-07-12T05:57:01.251Z,3196.00
2018-07-12T05:58:01.243Z,3068.00
2018-07-12T05:59:01.208Z,3164.00
2018-07-12T06:00:01.177Z,3152.00
2018-07-12T06:02:01.168Z,2876.00
2018-07-12T06:03:01.142Z,2780.00
2018-07-12T06:04:01.043Z,2664.00
2018-07-12T06:05:01.066Z,2736.00
2018-07-12T06:06:01.078Z,2856.00
2018-07-12T06:07:01.091Z,2896.00
2018-07-12T06:08:01.033Z,3184.00
2018-07-12T06:09:00.970Z,3324.00
2018-07-12T06:10:01.717Z,3400.00
2018-07-12T06:11:00.920Z,3392.00
2018-07-12T06:12:00.914Z,3392.00
2018-07-12T06:13:00.918Z,3392.00
2018-07-12T06:14:00.854Z,3376.00
2018-07-12T06:15:00.890Z,3316.00
2018-07-12T06:16:00.826Z,3240.00
2018-07-12T06:17:00.826Z,3176.00
2018-07-12T06:18:00.756Z,3052.00
2018-07-12T06:19:00.838Z,2896.00
2018-07-12T06:20:00.692Z,2852.00
2018-07-12T06:21:00.675Z,2824.00
2018-07-12T06:22:00.668Z,2788.00
2018-07-12T06:23:00.612Z,2744.00
2018-07-12T06:24:00.605Z,2732.00
2018-07-12T06:25:00.557Z,2780.00
2018-07-12T06:26:00.544Z,2860.00
2018-07-12T06:27:00.550Z,2972.00
2018-07-12T06:28:00.499Z,3092.00
2018-07-12T06:29:00.465Z,3208.00
2018-07-12T06:30:00.482Z,3336.00
2018-07-12T06:31:00.461Z,3472.00
2018-07-12T06:32:00.460Z,3620.00
2018-07-12T06:33:00.393Z,3772.00
2018-07-12T06:34:03.178Z,3952.00
2018-07-12T06:36:00.316Z,4284.00
2018-07-12T06:37:00.309Z,4452.00
2018-07-12T06:38:00.256Z,4620.00
2018-07-12T06:39:00.254Z,4768.00
2018-07-12T06:40:00.212Z,4896.00
2018-07-12T06:41:00.187Z,5000.00
2018-07-12T06:42:00.153Z,5076.00
2018-07-12T06:43:00.152Z,5120.00
2018-07-12T06:44:00.137Z,5184.00
2018-07-12T06:45:00.111Z,5252.00
2018-07-12T06:46:00.669Z,5348.00
2018-07-12T06:47:00.071Z,5456.00
2018-07-12T06:48:00.037Z,5580.00
2018-07-12T06:49:00.042Z,5724.00
2018-07-12T06:50:00.017Z,5864.00
2018-07-12T06:51:59.935Z,6124.00
2018-07-12T06:52:59.911Z,6228.00
2018-07-12T06:53:59.875Z,6376.00
2018-07-12T06:54:59.862Z,6544.00
2018-07-12T06:55:59.818Z,6716.00
2018-07-12T06:56:59.798Z,6864.00
2018-07-12T06:57:59.794Z,6948.00
2018-07-12T06:58:59.795Z,7028.00
2018-07-12T06:59:59.728Z,7144.00
2018-07-12T07:00:59.706Z,7256.00
2018-07-12T07:01:59.690Z,7320.00
2018-07-12T07:02:59.683Z,7348.00
2018-07-12T07:03:59.654Z,7292.00
2018-07-12T07:04:59.612Z,7208.00
2018-07-12T07:05:59.672Z,7128.00
2018-07-12T07:06:59.605Z,7072.00
2018-07-12T07:07:59.579Z,7048.00
2018-07-12T07:08:59.543Z,7008.00
2018-07-12T07:09:59.511Z,7016.00
2018-07-12T07:10:59.480Z,7056.00
2018-07-12T07:11:59.479Z,7140.00
2018-07-12T07:12:59.443Z,7292.00
2018-07-12T07:13:59.448Z,7460.00
2018-07-12T07:14:59.398Z,7648.00
2018-07-12T07:15:59.370Z,7828.00
2018-07-12T07:16:59.354Z,8080.00
2018-07-12T07:17:59.368Z,8344.00
2018-07-12T07:18:59.332Z,8588.00
2018-07-12T07:19:59.301Z,8780.00
2018-07-12T07:20:59.333Z,8956.00
2018-07-12T07:21:59.268Z,9152.00
2018-07-12T07:22:59.266Z,9296.00
2018-07-12T07:23:59.230Z,9416.00
2018-07-12T07:24:59.187Z,9464.00
2018-07-12T07:25:59.198Z,9512.00
2018-07-12T07:26:59.707Z,9548.00
2018-07-12T07:27:59.151Z,9592.00
2018-07-12T07:28:59.091Z,9688.00
2018-07-12T07:29:59.700Z,9812.00
2018-07-12T07:30:59.081Z,10052.00
2018-07-12T07:31:59.689Z,10308.00
2018-07-12T07:32:59.017Z,9700.00
2018-07-12T07:33:59.023Z,9380.00
2018-07-12T07:34:59.016Z,9008.00
2018-07-12T07:35:58.977Z,8816.00
2018-07-12T07:36:58.936Z,8676.00
2018-07-12T07:37:58.909Z,8592.00
2018-07-12T07:38:58.874Z,8624.00
2018-07-12T07:39:58.877Z,8804.00
2018-07-12T07:40:58.868Z,9052.00
2018-07-12T07:41:58.849Z,9332.00
2018-07-12T07:42:59.760Z,9604.00
2018-07-12T07:43:58.767Z,9824.00
2018-07-12T07:44:58.739Z,10056.00
2018-07-12T07:45:58.763Z,10232.00
2018-07-12T07:46:58.726Z,10444.00
2018-07-12T07:47:58.691Z,10632.00
2018-07-12T07:48:58.669Z,10796.00
2018-07-12T07:49:58.654Z,11144.00
2018-07-12T07:50:58.659Z,11776.00
2018-07-12T07:51:58.593Z,12556.00
2018-07-12T07:52:58.577Z,12936.00
2018-07-12T07:53:58.553Z,13592.00
2018-07-12T07:54:58.532Z,13460.00
2018-07-12T07:55:58.509Z,13172.00
2018-07-12T07:56:58.510Z,13196.00
2018-07-12T07:57:58.468Z,12712.00
2018-07-12T07:58:58.470Z,12256.00
2018-07-12T07:59:58.482Z,12388.00
2018-07-12T08:00:59.237Z,12552.00
2018-07-12T08:01:58.410Z,12360.00
2018-07-12T08:02:58.372Z,11972.00
2018-07-12T08:03:58.379Z,11952.00
2018-07-12T08:04:58.350Z,11848.00
2018-07-12T08:05:58.308Z,11844.00
2018-07-12T08:06:58.330Z,11832.00
2018-07-12T08:07:58.346Z,11588.00
2018-07-12T08:08:58.267Z,11260.00
2018-07-12T08:09:59.230Z,10992.00
2018-07-12T08:10:58.228Z,10764.00
2018-07-12T08:11:58.229Z,10584.00
2018-07-12T08:12:58.165Z,10440.00
2018-07-12T08:13:58.195Z,10276.00
2018-07-12T08:14:58.130Z,10064.00
2018-07-12T08:15:58.123Z,9836.00
2018-07-12T08:16:58.139Z,9664.00
2018-07-12T08:17:58.083Z,9552.00
2018-07-12T08:18:58.077Z,9488.00
2018-07-12T08:19:58.054Z,9400.00
2018-07-12T08:21:58.012Z,9072.00
2018-07-12T08:22:57.976Z,8872.00
2018-07-12T08:23:58.761Z,8684.00
2018-07-12T08:24:57.944Z,8516.00
2018-07-12T08:25:57.950Z,8416.00
2018-07-12T08:26:57.911Z,8356.00
2018-07-12T08:27:57.904Z,8360.00
2018-07-12T08:28:57.867Z,8348.00
2018-07-12T08:29:57.915Z,8432.00
2018-07-12T08:30:57.829Z,8508.00
2018-07-12T08:31:57.808Z,8596.00
2018-07-12T08:32:57.801Z,8656.00
2018-07-12T08:33:57.813Z,8724.00
2018-07-12T08:34:57.767Z,8792.00
2018-07-12T08:35:57.722Z,8828.00
2018-07-12T08:36:57.779Z,8880.00
2018-07-12T08:37:57.719Z,8980.00
2018-07-12T08:38:57.694Z,9112.00
2018-07-12T08:39:57.621Z,9292.00
2018-07-12T08:40:57.619Z,9532.00
2018-07-12T08:41:57.593Z,9888.00
2018-07-12T08:42:57.623Z,10268.00
2018-07-12T08:43:59.247Z,10584.00
2018-07-12T08:44:57.530Z,10788.00
2018-07-12T08:45:57.538Z,10892.00
2018-07-12T08:46:57.487Z,10928.00
2018-07-12T08:47:57.479Z,10908.00
2018-07-12T08:48:57.446Z,10876.00
2018-07-12T08:50:57.412Z,10788.00
2018-07-12T08:51:58.198Z,10848.00
2018-07-12T08:52:57.479Z,10788.00
2018-07-12T08:53:57.332Z,10596.00
2018-07-12T08:54:57.298Z,10408.00
2018-07-12T08:55:57.276Z,10100.00
2018-07-12T08:56:57.343Z,9792.00
2018-07-12T08:57:57.279Z,9496.00
2018-07-12T08:58:57.239Z,9268.00
2018-07-12T08:59:57.198Z,9144.00
2018-07-12T09:00:59.690Z,9120.00
2018-07-12T09:01:57.163Z,9204.00
2018-07-12T09:02:57.158Z,9376.00
2018-07-12T09:03:57.154Z,9576.00
2018-07-12T09:04:57.118Z,9856.00
2018-07-12T09:05:57.082Z,10160.00
2018-07-12T09:06:57.091Z,10492.00
2018-07-12T09:07:57.055Z,10808.00
2018-07-12T09:08:57.724Z,11048.00
2018-07-12T09:09:57.025Z,11236.00
2018-07-12T09:10:58.724Z,11416.00
2018-07-12T09:11:57.320Z,11464.00
2018-07-12T09:12:58.807Z,11604.00
2018-07-12T09:13:56.903Z,11648.00
2018-07-12T09:14:56.907Z,11696.00
2018-07-12T09:15:56.881Z,11724.00
2018-07-12T09:16:56.855Z,11772.00
2018-07-12T09:17:56.834Z,11808.00
2018-07-12T09:18:56.810Z,11884.00
2018-07-12T09:19:56.789Z,11964.00
2018-07-12T09:20:56.792Z,12048.00
2018-07-12T09:21:56.734Z,12104.00
2018-07-12T09:22:56.757Z,12004.00
2018-07-12T09:23:56.702Z,12188.00
2018-07-12T09:24:56.687Z,12196.00
2018-07-12T09:25:56.682Z,12176.00
2018-07-12T09:26:57.194Z,12180.00
2018-07-12T09:27:56.622Z,12120.00
2018-07-12T09:28:56.673Z,12124.00
2018-07-12T09:29:56.603Z,12104.00
2018-07-12T09:30:56.626Z,11992.00
2018-07-12T09:31:56.541Z,11852.00
2018-07-12T09:32:56.550Z,11592.00
2018-07-12T09:33:56.506Z,11400.00
2018-07-12T09:34:56.555Z,11204.00
2018-07-12T09:35:56.546Z,11072.00
2018-07-12T09:36:56.531Z,11000.00
2018-07-12T09:37:56.479Z,10888.00
2018-07-12T09:38:56.410Z,10968.00
2018-07-12T09:39:56.447Z,10924.00
2018-07-12T09:40:56.387Z,10868.00
2018-07-12T09:41:56.366Z,10708.00
2018-07-12T09:42:56.390Z,10500.00
2018-07-12T09:43:56.345Z,10308.00
2018-07-12T09:44:56.314Z,10160.00
2018-07-12T09:45:56.293Z,9996.00
2018-07-12T09:46:56.316Z,9972.00
2018-07-12T09:47:56.246Z,10088.00
2018-07-12T09:48:56.267Z,10028.00
2018-07-12T09:49:56.192Z,10120.00
2018-07-12T09:50:56.199Z,10048.00
2018-07-12T09:51:56.180Z,9904.00
2018-07-12T09:52:56.149Z,9772.00
2018-07-12T09:53:56.119Z,9660.00
2018-07-12T09:54:56.094Z,9556.00
2018-07-12T09:55:56.111Z,9596.00
2018-07-12T09:56:56.105Z,9676.00
2018-07-12T09:57:56.078Z,9884.00
2018-07-12T09:58:56.038Z,10312.00
2018-07-12T09:59:56.023Z,10728.00
2018-07-12T10:00:55.986Z,11132.00
2018-07-12T10:01:55.944Z,11476.00
2018-07-12T10:02:55.935Z,11732.00
2018-07-12T10:03:55.910Z,12032.00
2018-07-12T10:04:55.906Z,12192.00
2018-07-12T10:05:55.895Z,12232.00
2018-07-12T10:06:55.867Z,12284.00
2018-07-12T10:07:55.838Z,12216.00
2018-07-12T10:08:55.823Z,12048.00
2018-07-12T10:09:55.853Z,11876.00
2018-07-12T10:10:57.711Z,11592.00
2018-07-12T10:11:55.753Z,11280.00
2018-07-12T10:12:55.729Z,10864.00
2018-07-12T10:13:55.713Z,10572.00
2018-07-12T10:14:55.689Z,10436.00
2018-07-12T10:15:55.711Z,10420.00
2018-07-12T10:16:55.651Z,10452.00
2018-07-12T10:17:55.649Z,10472.00
2018-07-12T10:18:55.648Z,10524.00
2018-07-12T10:21:34.913Z,10664.00
2018-07-12T10:22:35.652Z,10688.00
2018-07-12T10:23:35.022Z,10712.00
2018-07-12T10:24:35.000Z,10808.00
2018-07-12T10:25:34.897Z,10880.00
2018-07-12T10:26:34.948Z,10988.00
2018-07-12T10:27:34.772Z,11064.00
2018-07-12T10:28:34.775Z,11100.00
2018-07-12T10:29:34.837Z,11132.00
2018-07-12T10:30:34.689Z,11220.00
2018-07-12T10:31:34.641Z,11252.00
2018-07-12T10:32:34.701Z,11444.00
2018-07-12T10:33:34.727Z,11436.00
2018-07-12T10:34:34.786Z,11436.00
2018-07-12T10:35:34.718Z,11208.00
2018-07-12T10:36:34.668Z,10948.00
2018-07-12T10:37:34.545Z,10660.00
2018-07-12T10:38:34.641Z,10448.00
2018-07-12T10:39:34.573Z,10236.00
2018-07-12T10:40:34.642Z,10016.00
2018-07-12T10:41:34.588Z,9940.00
2018-07-12T10:42:34.632Z,10020.00
2018-07-12T10:43:34.460Z,10188.00
2018-07-12T10:44:34.469Z,10300.00
2018-07-12T10:45:34.512Z,10360.00
2018-07-12T10:46:34.461Z,10468.00
2018-07-12T10:47:34.423Z,10616.00
2018-07-12T10:49:34.428Z,10900.00
2018-07-12T10:50:34.428Z,11072.00
2018-07-12T10:51:34.279Z,11200.00
2018-07-12T10:52:34.442Z,11248.00
2018-07-12T10:53:34.292Z,11240.00
2018-07-12T10:54:34.185Z,11192.00
2018-07-12T10:55:34.234Z,11092.00
2018-07-12T10:56:35.193Z,10992.00
2018-07-12T10:57:34.175Z,10988.00
2018-07-12T10:58:34.210Z,11036.00
2018-07-12T10:59:34.065Z,11132.00
2018-07-12T11:00:34.150Z,10944.00
2018-07-12T11:01:34.050Z,10756.00
2018-07-12T11:02:34.064Z,10628.00
2018-07-12T11:03:34.082Z,10568.00
2018-07-12T11:04:34.163Z,10624.00
2018-07-12T11:05:34.010Z,10792.00
2018-07-12T11:06:34.043Z,10996.00
2018-07-12T11:07:34.017Z,11188.00
2018-07-12T11:08:34.110Z,11356.00
2018-07-12T11:09:34.023Z,11356.00
2018-07-12T11:10:34.222Z,11300.00
2018-07-12T11:11:34.027Z,11252.00
2018-07-12T11:12:33.978Z,11216.00
2018-07-12T11:13:33.891Z,11264.00
2018-07-12T11:14:34.166Z,11328.00
2018-07-12T11:15:33.998Z,11348.00
2018-07-12T11:16:34.122Z,11336.00
2018-07-12T11:17:33.847Z,11212.00
2018-07-12T11:18:33.964Z,11116.00
2018-07-12T11:19:33.672Z,11124.00
2018-07-12T11:20:33.657Z,11076.00
2018-07-12T11:21:33.623Z,11020.00
2018-07-12T11:22:33.600Z,10924.00
2018-07-12T11:23:33.591Z,10784.00
2018-07-12T11:24:33.555Z,10548.00
2018-07-12T11:25:33.530Z,10452.00
2018-07-12T11:26:33.519Z,10292.00
2018-07-12T11:27:33.493Z,10312.00
2018-07-12T11:28:33.497Z,10272.00
2018-07-12T11:29:33.479Z,10164.00
2018-07-12T11:30:33.462Z,10096.00
2018-07-12T11:31:33.412Z,10028.00
2018-07-12T11:32:33.407Z,10028.00
2018-07-12T11:33:33.383Z,10056.00
2018-07-12T11:34:33.364Z,10044.00
2018-07-12T11:35:33.345Z,10028.00
2018-07-12T11:36:33.335Z,9944.00
2018-07-12T11:37:33.314Z,9932.00
2018-07-12T11:38:33.272Z,9976.00
2018-07-12T11:39:33.303Z,10008.00
2018-07-12T11:40:33.246Z,10116.00
2018-07-12T11:41:33.235Z,10300.00
2018-07-12T11:42:33.196Z,10504.00
2018-07-12T11:43:33.179Z,10712.00
2018-07-12T11:45:33.144Z,10984.00
2018-07-12T11:46:33.138Z,10996.00
2018-07-12T11:47:33.099Z,11028.00
2018-07-12T11:48:33.079Z,11048.00
2018-07-12T11:49:33.064Z,11032.00
2018-07-12T11:50:33.067Z,11176.00
2018-07-12T11:51:33.039Z,10980.00
2018-07-12T11:52:33.078Z,10532.00
2018-07-12T11:53:33.022Z,10264.00
2018-07-12T11:54:33.016Z,10048.00
2018-07-12T11:55:32.948Z,9828.00
2018-07-12T11:56:32.939Z,9608.00
2018-07-12T11:57:32.925Z,9388.00
2018-07-12T11:58:32.895Z,9248.00
2018-07-12T11:59:32.894Z,9172.00
2018-07-12T12:00:32.846Z,9120.00
2018-07-12T12:01:32.917Z,9232.00
2018-07-12T12:02:32.843Z,9232.00
2018-07-12T12:03:32.844Z,9172.00
2018-07-12T12:04:32.792Z,9208.00
2018-07-12T12:05:32.800Z,9340.00
2018-07-12T12:06:32.779Z,9520.00
2018-07-12T12:07:33.557Z,9708.00
2018-07-12T12:08:32.696Z,9844.00
2018-07-12T12:09:32.723Z,9892.00
2018-07-12T12:10:32.734Z,9868.00
2018-07-12T12:11:32.671Z,9812.00
2018-07-12T12:12:32.625Z,9668.00
2018-07-12T12:13:32.735Z,9432.00
2018-07-12T12:14:32.657Z,9220.00
2018-07-12T12:15:32.564Z,9048.00
2018-07-12T12:16:32.536Z,8972.00
2018-07-12T12:17:32.546Z,8940.00
2018-07-12T12:18:32.567Z,8824.00
2018-07-12T12:19:32.505Z,8624.00
2018-07-12T12:21:32.481Z,8348.00
2018-07-12T12:22:32.424Z,8372.00
2018-07-12T12:23:32.410Z,8536.00
2018-07-12T12:24:32.378Z,8760.00
2018-07-12T12:25:32.388Z,8980.00
2018-07-12T12:26:32.361Z,9164.00
2018-07-12T12:27:32.390Z,9316.00
2018-07-12T12:28:32.334Z,9464.00
2018-07-12T12:29:32.334Z,9692.00
2018-07-12T12:30:32.285Z,9948.00
2018-07-12T12:31:32.264Z,10108.00
2018-07-12T12:32:32.282Z,10408.00
2018-07-12T12:33:32.281Z,10612.00
2018-07-12T12:34:32.249Z,10740.00
2018-07-12T12:35:32.233Z,10788.00